Time;durP1;ratioP1;P1;durP2;ratioP2;P2;SDS_P1;SDS_P2;PMS_P1;PMS_P2;Temp;Humidity;BMP_temperature;BMP_pressure;BME280_temperature;BME280_humidity;BME280_pressure;Samples;Min_cycle;Max_cycle;Signal;HPM_P1;HPM_P2
2022/02/06 00:01:11;;;;;;;;;;;;;;;5.22;88.42;100318.66;6259004;22;19927;-87
2022/02/06 00:03:37;;;;;;;;;;;;;;;5.21;89.01;100322.09;6234638;22;19951;-88
2022/02/06 00:06:07;;;;;;;;;;;;;;;5.19;89.30;100309.97;6257718;22;20607;-89
2022/02/06 00:08:39;;;;;;;;;;;;;;;5.19;89.22;100303.06;6235719;22;19974;-85
2022/02/06 00:11:06;;;;;;;;;;;;;;;5.20;89.33;100219.19;6257886;22;19924;-86
2022/02/06 00:13:35;;;;;;;;;;;;;;;5.22;89.78;100291.84;6259561;22;19929;-89
2022/02/06 00:16:09;;;;;;;;;;;;;;;5.19;90.25;100284.91;6264371;22;19930;-88
2022/02/06 00:18:41;;;;;;;;;;;;;;;5.17;90.81;100276.22;6232836;22;19924;-87
2022/02/06 00:21:12;;;;;;;;;;;;;;;5.17;91.58;100288.34;6235418;22;19923;-87
2022/02/06 00:23:39;;;;;;;;;;;;;;;5.10;92.24;100264.09;6258820;22;20061;-86
2022/02/06 00:26:20;;;;;;;;;;;;;;;5.07;93.23;100269.22;6235199;22;20001;-86
2022/02/06 00:28:59;;;;;;;;;;;;;;;5.03;93.71;100263.19;6262392;22;20007;-87
2022/02/06 00:31:35;;;;;;;;;;;;;;;5.00;94.05;100247.56;6282492;22;20186;-87
2022/02/06 00:34:33;;;;;;;;;;;;;;;4.98;94.65;100262.28;6261902;22;19982;-88
2022/02/06 00:39:45;;;;;;;;;;;;;;;4.93;96.06;100235.44;6258864;22;20382;-88
2022/02/06 00:42:12;;;;;;;;;;;;;;;4.94;96.18;100247.53;6260674;22;20004;-87
2022/02/06 00:44:39;;;;;;;;;;;;;;;4.93;96.43;100240.63;6257406;22;19972;-86
2022/02/06 00:47:08;;;;;;;;;;;;;;;4.94;96.33;100227.66;6261212;22;19930;-87
2022/02/06 00:49:35;;;;;;;;;;;;;;;4.95;96.89;100237.19;6256652;22;19930;-88
2022/02/06 00:52:07;;;;;;;;;;;;;;;4.97;96.91;100229.41;6261061;22;19923;-88
2022/02/06 00:54:35;;;;;;;;;;;;;;;4.99;96.62;100225.06;6237206;22;19977;-83
2022/02/06 00:57:05;;;;;;;;;;;;;;;4.96;97.35;100220.72;6257342;22;20274;-87
2022/02/06 00:59:31;;;;;;;;;;;;;;;4.97;97.55;100222.47;6257830;22;19923;-87
2022/02/06 01:01:58;;;;;;;;;;;;;;;4.99;97.75;100214.69;6258600;22;20349;-84
2022/02/06 01:04:28;;;;;;;;;;;;;;;5.01;97.35;100205.22;6260306;22;19930;-87
2022/02/06 01:06:54;;;;;;;;;;;;;;;5.02;97.31;100213.84;6236680;22;20025;-87
2022/02/06 01:09:21;;;;;;;;;;;;;;;5.03;97.65;100202.63;6230637;22;19930;-89
2022/02/06 01:11:50;;;;;;;;;;;;;;;5.01;97.83;100191.38;6261542;22;20239;-88
2022/02/06 01:14:26;;;;;;;;;;;;;;;5.05;97.39;100181.03;6286271;22;20399;-88
2022/02/06 01:17:00;;;;;;;;;;;;;;;5.01;98.03;100168.91;6260947;22;19929;-87
2022/02/06 01:19:36;;;;;;;;;;;;;;;5.01;98.17;100155.06;6258496;22;19986;-89
2022/02/06 01:22:07;;;;;;;;;;;;;;;5.00;97.80;100155.94;6235796;22;19988;-86
2022/02/06 01:24:41;;;;;;;;;;;;;;;5.01;97.88;100142.97;6258584;22;19923;-86
2022/02/06 01:27:14;;;;;;;;;;;;;;;5.04;97.45;100142.97;6284238;22;20350;-86
2022/02/06 01:29:47;;;;;;;;;;;;;;;5.06;97.30;100136.06;6256677;22;20086;-87
2022/02/06 01:32:18;;;;;;;;;;;;;;;5.08;97.43;100125.69;6258788;22;20238;-87
2022/02/06 01:34:49;;;;;;;;;;;;;;;5.08;97.24;100115.31;6257172;22;19930;-87
2022/02/06 01:37:24;;;;;;;;;;;;;;;5.11;96.88;100115.31;6285587;22;19977;-86
2022/02/06 01:40:07;;;;;;;;;;;;;;;5.15;96.31;100111.91;6285244;22;19927;-86
2022/02/06 01:42:39;;;;;;;;;;;;;;;5.18;96.46;100098.06;6237138;22;19927;-87
2022/02/06 01:45:31;;;;;;;;;;;;;;;5.22;95.85;100089.44;6236077;22;20355;-87
2022/02/06 02:04:34;;;;;;;;;;;;;;;5.35;94.93;100078.22;6278886;22;19958;-88
2022/02/06 02:13:13;;;;;;;;;;;;;;;5.41;94.10;100079.97;5040398;28;20114;-87
2022/02/06 02:21:49;;;;;;;;;;;;;;;5.45;93.48;100048.84;5045551;28;19978;-85
2022/02/06 02:24:41;;;;;;;;;;;;;;;5.47;93.71;100035.84;5063405;28;20336;-85
2022/02/06 02:27:18;;;;;;;;;;;;;;;5.41;94.48;100036.72;5061286;28;19967;-86
2022/02/06 02:30:20;;;;;;;;;;;;;;;5.38;95.26;100022.88;5059552;28;19933;-86
2022/02/06 02:33:13;;;;;;;;;;;;;;;5.32;96.08;100013.34;5045485;28;20017;-87
2022/02/06 02:47:15;;;;;;;;;;;;;;;5.15;98.78;99995.16;4983222;28;19937;-85
2022/02/06 02:49:49;;;;;;;;;;;;;;;5.12;99.28;99988.22;5025784;28;19933;-85
2022/02/06 02:52:24;;;;;;;;;;;;;;;5.09;100.00;99970.03;5040634;28;19929;-87
2022/02/06 02:54:59;;;;;;;;;;;;;;;5.08;100.00;99981.25;5024136;28;20457;-86
2022/02/06 02:57:31;;;;;;;;;;;;;;;5.07;100.00;99969.19;5024047;28;19932;-87
2022/02/06 03:00:07;;;;;;;;;;;;;;;5.05;100.00;99963.09;5026231;28;19932;-85
2022/02/06 03:02:34;;;;;;;;;;;;;;;5.07;100.00;99953.63;5046754;28;19933;-85
2022/02/06 03:05:02;;;;;;;;;;;;;;;5.05;100.00;99954.47;5022711;28;19929;-85
2022/02/06 03:07:29;;;;;;;;;;;;;;;5.05;100.00;99949.28;5029656;28;19982;-86
2022/02/06 03:09:55;;;;;;;;;;;;;;;5.04;100.00;99944.94;5029305;28;19934;-86
2022/02/06 03:12:26;;;;;;;;;;;;;;;5.06;100.00;99922.47;5018959;28;19929;-85
2022/02/06 03:15:00;;;;;;;;;;;;;;;5.13;100.00;99937.19;5023074;28;20003;-86
2022/02/06 03:17:35;;;;;;;;;;;;;;;5.07;100.00;99925.09;5005078;28;20415;-85
2022/02/06 03:20:07;;;;;;;;;;;;;;;5.04;100.00;99925.06;5006501;28;19945;-85
2022/02/06 03:22:46;;;;;;;;;;;;;;;5.02;100.00;99915.53;5005065;28;20045;-84
2022/02/06 03:25:18;;;;;;;;;;;;;;;5.02;100.00;99916.41;4995571;28;19936;-85
2022/02/06 03:27:44;;;;;;;;;;;;;;;5.04;100.00;99914.69;4997028;28;19933;-86
2022/02/06 03:30:17;;;;;;;;;;;;;;;5.05;100.00;99907.78;5001641;28;20320;-85
2022/02/06 03:32:43;;;;;;;;;;;;;;;5.03;100.00;99915.56;5013400;28;20407;-85
2022/02/06 03:35:10;;;;;;;;;;;;;;;5.04;100.00;99891.34;5006938;28;19933;-86
2022/02/06 03:37:37;;;;;;;;;;;;;;;5.03;100.00;99897.41;4998295;28;19929;-86
2022/02/06 03:40:07;;;;;;;;;;;;;;;5.03;100.00;99902.59;4996392;28;19929;-84
2022/02/06 03:42:36;;;;;;;;;;;;;;;5.04;100.00;99895.66;4991796;28;19940;-86
2022/02/06 03:45:07;;;;;;;;;;;;;;;5.05;100.00;99881.84;5007735;28;19929;-85
2022/02/06 03:47:46;;;;;;;;;;;;;;;5.14;100.00;99881.84;4996275;28;19932;-85
2022/02/06 03:50:15;;;;;;;;;;;;;;;5.11;100.00;99881.81;5003684;28;19929;-85
2022/02/06 03:52:46;;;;;;;;;;;;;;;5.11;100.00;99864.53;5009040;28;20034;-87
2022/02/06 03:55:18;;;;;;;;;;;;;;;5.14;100.00;99877.50;4998813;28;20032;-86
2022/02/06 03:57:48;;;;;;;;;;;;;;;5.17;100.00;99883.56;4995733;28;19937;-86
2022/02/06 04:00:16;;;;;;;;;;;;;;;5.23;100.00;99866.28;4993142;28;19929;-87
2022/02/06 04:02:43;;;;;;;;;;;;;;;5.25;100.00;99874.06;4988939;28;19976;-86
2022/02/06 04:05:10;;;;;;;;;;;;;;;5.25;100.00;99858.50;4994632;28;20516;-85
2022/02/06 04:07:37;;;;;;;;;;;;;;;5.24;100.00;99862.81;5006766;28;20009;-85
2022/02/06 04:10:04;;;;;;;;;;;;;;;5.25;100.00;99856.78;5006114;28;20371;-84
2022/02/06 04:12:31;;;;;;;;;;;;;;;5.29;100.00;99842.03;5031352;28;20399;-84
2022/02/06 04:15:01;;;;;;;;;;;;;;;5.30;100.00;99843.78;5010030;28;20504;-85
2022/02/06 04:17:36;;;;;;;;;;;;;;;5.30;100.00;99836.84;5015015;28;19935;-85
2022/02/06 04:20:02;;;;;;;;;;;;;;;5.30;100.00;99841.19;5025402;28;20567;-85
2022/02/06 04:22:29;;;;;;;;;;;;;;;5.27;100.00;99836.88;5002542;28;19928;-85
2022/02/06 04:24:55;;;;;;;;;;;;;;;5.29;100.00;99826.47;5011002;28;19974;-85
2022/02/06 04:27:22;;;;;;;;;;;;;;;5.32;100.00;99830.81;5010139;28;20835;-85
2022/02/06 04:29:51;;;;;;;;;;;;;;;5.32;100.00;99834.28;5019403;28;19932;-85
2022/02/06 04:32:17;;;;;;;;;;;;;;;5.33;100.00;99814.38;5008452;28;19956;-85
2022/02/06 04:34:44;;;;;;;;;;;;;;;5.36;100.00;99824.72;5012222;28;19936;-86
2022/02/06 04:37:17;;;;;;;;;;;;;;;5.36;100.00;99811.75;5019907;28;19932;-84
2022/02/06 04:45:45;;;;;;;;;;;;;;;5.33;100.00;99801.41;5013087;28;19933;-87
2022/02/06 04:48:38;;;;;;;;;;;;;;;5.36;100.00;99788.41;5029357;28;19932;-85
2022/02/06 04:51:39;;;;;;;;;;;;;;;5.30;100.00;99782.34;5011062;28;19929;-86
2022/02/06 05:16:11;;;;;;;;;;;;;;;5.57;100.00;99756.38;5040417;28;19932;-86
2022/02/06 05:21:54;;;;;;;;;;;;;;;5.61;100.00;99750.28;5014612;28;19933;-87
2022/02/06 05:24:43;;;;;;;;;;;;;;;5.66;100.00;99726.88;5012895;28;19932;-86
2022/02/06 05:27:24;;;;;;;;;;;;;;;5.70;100.00;99710.44;5006790;28;19935;-85
2022/02/06 05:30:00;;;;;;;;;;;;;;;5.79;99.44;99738.97;5026139;28;20040;-85
2022/02/06 05:32:35;;;;;;;;;;;;;;;5.83;99.29;99737.19;5007654;28;20156;-85
2022/02/06 05:35:02;;;;;;;;;;;;;;;5.84;99.09;99721.63;5022845;28;20045;-85
2022/02/06 05:37:28;;;;;;;;;;;;;;;5.84;99.55;99721.63;5008287;28;19928;-86
2022/02/06 05:39:55;;;;;;;;;;;;;;;5.86;99.52;99719.88;5008147;28;19994;-87
2022/02/06 05:42:22;;;;;;;;;;;;;;;5.88;99.77;99714.66;5010805;28;19933;-87
2022/02/06 05:44:54;;;;;;;;;;;;;;;5.86;99.77;99699.09;5023096;28;19928;-85
2022/02/06 05:47:22;;;;;;;;;;;;;;;5.85;100.00;99709.50;4997547;28;19932;-85
2022/02/06 05:49:48;;;;;;;;;;;;;;;5.86;100.00;99708.63;5029127;28;20278;-86
2022/02/06 05:52:15;;;;;;;;;;;;;;;5.90;100.00;99725.94;5009532;28;19940;-85
2022/02/06 05:54:42;;;;;;;;;;;;;;;5.87;100.00;99694.78;5020022;28;19932;-86
2022/02/06 05:57:09;;;;;;;;;;;;;;;5.86;100.00;99687.84;5029151;28;19933;-86
2022/02/06 05:59:35;;;;;;;;;;;;;;;5.85;100.00;99693.91;5029321;28;19924;-85
2022/02/06 06:02:02;;;;;;;;;;;;;;;5.83;100.00;99680.06;5026216;28;19932;-85
2022/02/06 06:04:28;;;;;;;;;;;;;;;5.83;100.00;99686.16;5003616;28;19940;-86
2022/02/06 06:06:55;;;;;;;;;;;;;;;5.82;100.00;99694.78;5030926;28;19979;-86
2022/02/06 06:09:21;;;;;;;;;;;;;;;5.83;100.00;99687.84;5030897;28;20408;-84
2022/02/06 06:11:48;;;;;;;;;;;;;;;5.89;100.00;99691.31;5023776;28;21204;-85
2022/02/06 06:14:14;;;;;;;;;;;;;;;5.92;99.73;99678.28;5012649;28;19968;-86
2022/02/06 06:16:41;;;;;;;;;;;;;;;5.94;99.16;99673.09;5018887;28;19955;-86
2022/02/06 06:19:07;;;;;;;;;;;;;;;5.95;99.45;99669.63;5027937;28;20218;-84
2022/02/06 06:21:38;;;;;;;;;;;;;;;5.92;99.22;99646.28;5017791;28;19964;-86
2022/02/06 06:24:06;;;;;;;;;;;;;;;5.89;100.00;99670.53;5007846;28;19936;-86
2022/02/06 06:26:36;;;;;;;;;;;;;;;5.89;99.96;99662.75;5045099;28;20177;-86
2022/02/06 06:29:03;;;;;;;;;;;;;;;5.89;99.77;99654.06;5026504;28;19935;-86
2022/02/06 06:31:30;;;;;;;;;;;;;;;5.91;99.47;99647.13;5023940;28;20307;-85
2022/02/06 06:33:56;;;;;;;;;;;;;;;5.89;99.55;99646.28;5013812;28;20499;-86
2022/02/06 06:36:23;;;;;;;;;;;;;;;5.88;99.72;99649.75;5023013;28;20064;-85
2022/02/06 06:38:51;;;;;;;;;;;;;;;5.88;99.36;99640.22;5027993;28;19944;-86
2022/02/06 06:41:17;;;;;;;;;;;;;;;5.91;98.64;99618.56;5029470;28;19932;-86
2022/02/06 06:43:44;;;;;;;;;;;;;;;5.94;98.78;99634.13;5022517;28;19972;-86
2022/02/06 06:46:12;;;;;;;;;;;;;;;5.94;98.21;99618.53;5023069;28;19933;-85
2022/02/06 06:48:39;;;;;;;;;;;;;;;5.92;98.10;99620.31;5025307;28;19938;-84
2022/02/06 06:51:08;;;;;;;;;;;;;;;5.96;98.01;99627.19;5007292;28;20059;-87
2022/02/06 06:53:38;;;;;;;;;;;;;;;5.94;98.33;99598.63;5043531;28;19943;-84
2022/02/06 06:56:11;;;;;;;;;;;;;;;5.94;98.17;99610.75;5005659;28;19932;-86
2022/02/06 06:58:42;;;;;;;;;;;;;;;5.95;97.94;99587.34;5009065;28;19955;-85
2022/02/06 07:01:20;;;;;;;;;;;;;;;5.95;98.11;99584.75;5024811;28;19958;-86
2022/02/06 07:03:49;;;;;;;;;;;;;;;6.00;97.63;99595.16;5011717;28;20295;-86
2022/02/06 07:06:18;;;;;;;;;;;;;;;6.03;97.32;99605.50;5024641;28;20281;-85
2022/02/06 07:08:45;;;;;;;;;;;;;;;6.07;97.54;99602.00;5009884;28;19928;-86
2022/02/06 07:11:12;;;;;;;;;;;;;;;6.16;97.18;99592.44;5037554;28;19932;-84
2022/02/06 07:13:38;;;;;;;;;;;;;;;6.13;97.43;99573.38;5015130;28;20715;-86
2022/02/06 07:16:06;;;;;;;;;;;;;;;6.12;97.98;99599.41;5009496;28;20448;-85
2022/02/06 07:18:32;;;;;;;;;;;;;;;6.15;97.52;99588.97;5014008;28;19929;-87
2022/02/06 07:20:59;;;;;;;;;;;;;;;6.15;97.74;99591.56;5017973;28;20417;-85
2022/02/06 07:23:25;;;;;;;;;;;;;;;6.18;97.75;99575.97;5007492;28;20163;-88
2022/02/06 07:25:54;;;;;;;;;;;;;;;6.19;98.22;99582.00;5017148;28;20470;-85
2022/02/06 07:28:21;;;;;;;;;;;;;;;6.20;98.41;99595.00;5010675;28;19953;-85
2022/02/06 07:30:48;;;;;;;;;;;;;;;6.24;97.74;99588.03;5013727;28;19940;-85
2022/02/06 07:33:19;;;;;;;;;;;;;;;6.26;97.80;99574.16;5008932;28;20037;-85
2022/02/06 07:35:46;;;;;;;;;;;;;;;6.29;98.18;99570.66;5022719;28;20394;-84
2022/02/06 07:38:14;;;;;;;;;;;;;;;6.28;98.05;99576.72;5013506;28;20990;-85
2022/02/06 07:40:42;;;;;;;;;;;;;;;6.28;98.35;99551.63;5023698;28;20041;-86
2022/02/06 07:43:09;;;;;;;;;;;;;;;6.29;99.00;99578.47;5033910;28;19939;-87
2022/02/06 07:45:36;;;;;;;;;;;;;;;6.20;100.00;99555.16;5014463;28;20299;-84
2022/02/06 07:48:04;;;;;;;;;;;;;;;6.14;100.00;99569.06;5023473;28;19928;-86
2022/02/06 07:50:31;;;;;;;;;;;;;;;6.12;100.00;99566.47;5026519;28;19969;-85
2022/02/06 07:52:57;;;;;;;;;;;;;;;6.12;100.00;99568.22;5013037;28;19925;-85
2022/02/06 07:55:24;;;;;;;;;;;;;;;6.13;100.00;99569.94;5030997;28;19933;-86
2022/02/06 07:57:50;;;;;;;;;;;;;;;6.15;100.00;99560.38;5032028;28;20418;-86
2022/02/06 08:00:20;;;;;;;;;;;;;;;6.19;100.00;99556.91;5028266;28;20118;-86
2022/02/06 08:02:50;;;;;;;;;;;;;;;6.22;100.00;99549.06;5018264;28;19932;-85
2022/02/06 08:05:25;;;;;;;;;;;;;;;6.25;100.00;99542.97;5027631;28;19928;-86
2022/02/06 08:07:53;;;;;;;;;;;;;;;6.19;100.00;99546.50;5022061;28;19983;-86
2022/02/06 08:10:22;;;;;;;;;;;;;;;6.17;100.00;99543.06;5016984;28;20387;-86
2022/02/06 08:12:55;;;;;;;;;;;;;;;6.17;100.00;99539.59;5011195;28;19928;-86
2022/02/06 08:15:23;;;;;;;;;;;;;;;6.20;100.00;99542.16;5017928;28;19947;-86
2022/02/06 08:17:53;;;;;;;;;;;;;;;6.21;100.00;99526.56;5035757;28;20007;-84
2022/02/06 08:20:21;;;;;;;;;;;;;;;6.24;100.00;99523.06;5006320;28;19932;-84
2022/02/06 08:22:52;;;;;;;;;;;;;;;6.29;100.00;99513.50;5013278;28;19928;-86
2022/02/06 08:25:19;;;;;;;;;;;;;;;6.37;100.00;99511.66;5035999;28;19986;-85
2022/02/06 08:27:45;;;;;;;;;;;;;;;6.44;100.00;99505.53;5009880;28;20041;-85
2022/02/06 08:30:14;;;;;;;;;;;;;;;6.55;100.00;99488.97;5028807;28;19939;-86
2022/02/06 08:32:41;;;;;;;;;;;;;;;6.63;100.00;99487.13;5047457;28;19936;-86
2022/02/06 08:35:09;;;;;;;;;;;;;;;6.70;99.28;99490.50;5017217;28;20005;-85
2022/02/06 08:37:36;;;;;;;;;;;;;;;6.77;97.86;99484.38;5014401;28;19995;-85
2022/02/06 08:42:54;;;;;;;;;;;;;;;6.89;97.01;99446.94;5022957;28;20736;-86
2022/02/06 08:45:22;;;;;;;;;;;;;;;6.95;96.51;99470.28;5030199;28;20399;-85
2022/02/06 08:47:50;;;;;;;;;;;;;;;6.98;96.34;99469.38;5018335;28;19928;-86
2022/02/06 08:50:19;;;;;;;;;;;;;;;6.99;97.08;99447.66;5015885;28;19929;-85
2022/02/06 08:52:48;;;;;;;;;;;;;;;6.97;96.59;99432.06;5005567;28;19928;-85
2022/02/06 08:55:17;;;;;;;;;;;;;;;6.98;97.06;99452.00;5027421;28;19929;-87
2022/02/06 08:57:47;;;;;;;;;;;;;;;6.96;97.58;99448.56;5015752;28;19932;-85
2022/02/06 09:00:18;;;;;;;;;;;;;;;6.94;97.46;99434.72;5032836;28;19940;-85
2022/02/06 09:02:54;;;;;;;;;;;;;;;6.92;97.84;99433.88;5030688;28;19933;-85
2022/02/06 09:05:28;;;;;;;;;;;;;;;6.95;97.39;99431.25;5021133;28;19929;-85
2022/02/06 09:07:56;;;;;;;;;;;;;;;6.98;97.21;99407.78;5034974;28;19932;-85
2022/02/06 09:10:31;;;;;;;;;;;;;;;7.04;96.37;99406.81;5030078;28;19954;-84
2022/02/06 09:13:05;;;;;;;;;;;;;;;7.07;96.21;99404.19;5016371;28;21100;-85
2022/02/06 09:15:32;;;;;;;;;;;;;;;7.11;95.15;99404.09;5021351;28;19992;-86
2022/02/06 09:17:58;;;;;;;;;;;;;;;7.15;95.79;99402.31;5027973;28;19933;-85
2022/02/06 09:20:25;;;;;;;;;;;;;;;7.21;95.89;99398.75;5014388;28;20291;-85
2022/02/06 09:22:52;;;;;;;;;;;;;;;7.23;95.13;99395.25;5008417;28;20402;-86
2022/02/06 09:25:19;;;;;;;;;;;;;;;7.23;94.97;99391.78;5014191;28;19959;-85
2022/02/06 09:27:46;;;;;;;;;;;;;;;7.23;94.63;99377.03;5022370;28;19921;-86
2022/02/06 09:30:21;;;;;;;;;;;;;;;7.25;93.54;99366.63;5031179;28;20474;-85
2022/02/06 09:35:22;;;;;;;;;;;;;;;7.26;93.93;99371.78;5008781;28;20304;-85
2022/02/06 09:37:56;;;;;;;;;;;;;;;7.27;93.84;99354.41;5011224;28;20641;-85
2022/02/06 09:40:24;;;;;;;;;;;;;;;7.29;93.78;99369.13;5031004;28;19940;-86
2022/02/06 09:42:55;;;;;;;;;;;;;;;7.24;94.63;99344.06;5027663;28;19928;-86
2022/02/06 09:45:28;;;;;;;;;;;;;;;7.21;94.75;99347.56;5031766;28;20063;-86
2022/02/06 09:47:57;;;;;;;;;;;;;;;7.15;95.87;99347.66;5019214;28;19932;-86
2022/02/06 09:50:25;;;;;;;;;;;;;;;7.03;97.58;99345.28;5020379;28;19943;-85
2022/02/06 09:53:00;;;;;;;;;;;;;;;6.85;100.00;99313.44;5017899;28;19932;-85
2022/02/06 09:55:27;;;;;;;;;;;;;;;6.76;99.96;99324.00;5031540;28;19935;-86
2022/02/06 09:57:55;;;;;;;;;;;;;;;6.62;100.00;99326.78;5028848;28;19939;-86
2022/02/06 10:00:29;;;;;;;;;;;;;;;6.58;100.00;99310.38;5027395;28;20763;-84
2022/02/06 10:03:02;;;;;;;;;;;;;;;6.55;100.00;99307.81;5022550;28;19932;-85
2022/02/06 10:05:33;;;;;;;;;;;;;;;6.51;100.00;99305.28;5028206;28;19971;-85
2022/02/06 10:08:11;;;;;;;;;;;;;;;6.51;100.00;99305.28;5030463;28;19939;-86
2022/02/06 10:13:23;;;;;;;;;;;;;;;6.54;100.00;99295.69;5016447;28;19932;-85
2022/02/06 10:15:49;;;;;;;;;;;;;;;6.50;100.00;99283.63;5032241;28;19933;-86
2022/02/06 10:18:16;;;;;;;;;;;;;;;6.40;100.00;99280.31;5027996;28;19936;-85
2022/02/06 10:20:49;;;;;;;;;;;;;;;6.38;100.00;99279.44;5036615;28;19933;-86
2022/02/06 10:23:29;;;;;;;;;;;;;;;6.40;100.00;99269.91;5017040;28;19932;-85
2022/02/06 10:26:05;;;;;;;;;;;;;;;6.43;100.00;99266.41;5023556;28;20948;-85
2022/02/06 10:28:41;;;;;;;;;;;;;;;6.45;100.00;99246.44;5052304;28;19928;-86
2022/02/06 10:31:20;;;;;;;;;;;;;;;6.47;100.00;99252.47;5039739;28;19934;-86
2022/02/06 10:33:55;;;;;;;;;;;;;;;6.46;100.00;99249.00;5039143;28;19962;-86
2022/02/06 10:36:45;;;;;;;;;;;;;;;6.49;100.00;99235.09;5036714;28;19940;-85
2022/02/06 10:39:24;;;;;;;;;;;;;;;6.49;100.00;99214.31;5026470;28;19933;-86
2022/02/06 10:41:54;;;;;;;;;;;;;;;6.53;100.00;99231.59;5034559;28;21037;-85
2022/02/06 10:44:21;;;;;;;;;;;;;;;6.57;100.00;99183.84;5052977;28;19933;-86
2022/02/06 10:47:01;;;;;;;;;;;;;;;6.64;99.37;99191.56;5026535;28;19944;-86
2022/02/06 10:49:28;;;;;;;;;;;;;;;6.68;99.41;99175.03;5036847;28;20882;-86
2022/02/06 10:52:05;;;;;;;;;;;;;;;6.69;99.92;99169.78;5036180;28;19955;-86
2022/02/06 10:54:35;;;;;;;;;;;;;;;6.72;98.92;99176.69;5014804;28;19928;-86
2022/02/06 10:57:04;;;;;;;;;;;;;;;6.74;98.68;99156.69;5036012;28;19938;-86
2022/02/06 10:59:45;;;;;;;;;;;;;;;6.76;98.78;99142.78;5055698;28;19940;-86
2022/02/06 11:02:24;;;;;;;;;;;;;;;6.80;98.42;99148.78;5049401;28;19928;-85
2022/02/06 11:05:01;;;;;;;;;;;;;;;6.86;97.63;99140.88;5048672;28;20106;-86
2022/02/06 11:07:31;;;;;;;;;;;;;;;6.84;97.34;99121.84;5038479;28;19931;-86
2022/02/06 11:10:16;;;;;;;;;;;;;;;6.86;96.87;99108.81;5013969;28;20926;-86
2022/02/06 11:12:50;;;;;;;;;;;;;;;6.92;96.75;99100.88;5032381;28;20027;-86
2022/02/06 11:15:30;;;;;;;;;;;;;;;6.89;97.32;99101.78;5024210;28;19933;-86
2022/02/06 11:18:12;;;;;;;;;;;;;;;6.85;96.97;99086.28;5051874;28;19940;-86
2022/02/06 11:21:00;;;;;;;;;;;;;;;6.83;97.28;99070.72;5039627;28;19954;-86
2022/02/06 11:23:47;;;;;;;;;;;;;;;6.82;97.85;99071.59;5025369;28;19939;-86
2022/02/06 11:26:17;;;;;;;;;;;;;;;6.80;98.12;99060.38;5047383;28;19933;-86
2022/02/06 11:28:45;;;;;;;;;;;;;;;6.75;98.19;99055.25;5021622;28;19940;-87
2022/02/06 11:31:15;;;;;;;;;;;;;;;6.73;98.38;99030.19;5005945;28;21496;-86
2022/02/06 11:33:41;;;;;;;;;;;;;;;6.72;98.40;99031.06;5030219;28;20872;-87
2022/02/06 11:36:15;;;;;;;;;;;;;;;6.67;98.06;99019.88;5018466;28;19971;-87
2022/02/06 11:45:12;;;;;;;;;;;;;;;6.57;98.49;98988.88;5037891;28;20422;-86
2022/02/06 11:47:44;;;;;;;;;;;;;;;6.58;97.63;98979.31;5034812;28;19933;-86
2022/02/06 11:50:11;;;;;;;;;;;;;;;6.56;97.50;98934.31;5018148;28;20035;-86
2022/02/06 11:52:58;;;;;;;;;;;;;;;6.52;96.91;98945.63;5029005;28;20486;-85
2022/02/06 11:55:49;;;;;;;;;;;;;;;6.51;97.23;98962.13;5034486;28;20474;-87
2022/02/06 11:58:27;;;;;;;;;;;;;;;6.43;96.46;98950.13;5037934;28;20386;-86
2022/02/06 12:01:06;;;;;;;;;;;;;;;6.37;96.49;98931.22;5031373;28;20343;-86
2022/02/06 12:04:01;;;;;;;;;;;;;;;6.32;97.52;98931.28;5031138;28;19933;-86
2022/02/06 12:06:47;;;;;;;;;;;;;;;6.27;96.65;98933.09;5030361;28;20302;-85
2022/02/06 12:09:16;;;;;;;;;;;;;;;6.21;97.21;98886.47;5036088;28;19960;-85
2022/02/06 12:12:05;;;;;;;;;;;;;;;6.14;97.36;98909.13;5025776;28;19939;-85
2022/02/06 12:14:45;;;;;;;;;;;;;;;6.08;97.44;98904.88;5030546;28;20363;-87
2022/02/06 12:17:23;;;;;;;;;;;;;;;6.05;97.94;98885.91;5017944;28;19928;-85
2022/02/06 12:20:24;;;;;;;;;;;;;;;5.98;97.71;98882.56;5020639;28;20058;-85
2022/02/06 12:22:56;;;;;;;;;;;;;;;5.97;97.33;98867.81;5022778;28;19935;-85
2022/02/06 12:25:31;;;;;;;;;;;;;;;5.94;97.38;98855.78;5032801;28;21349;-85
2022/02/06 12:28:15;;;;;;;;;;;;;;;5.91;97.24;98844.59;5034794;28;19966;-85
2022/02/06 12:30:42;;;;;;;;;;;;;;;5.81;98.41;98856.88;5031106;28;20555;-85
2022/02/06 12:33:23;;;;;;;;;;;;;;;5.73;98.93;98844.03;5032384;28;19939;-86
2022/02/06 12:38:33;;;;;;;;;;;;;;;5.72;97.10;98818.97;4986067;28;20009;-86
2022/02/06 12:41:02;;;;;;;;;;;;;;;5.70;98.01;98806.91;5035520;28;19929;-85
2022/02/06 12:43:38;;;;;;;;;;;;;;;5.67;97.79;98796.56;5031118;28;19928;-86
2022/02/06 12:46:07;;;;;;;;;;;;;;;5.63;98.15;98800.94;5034447;28;20023;-87
2022/02/06 12:48:33;;;;;;;;;;;;;;;5.64;97.31;98800.06;5020486;28;19928;-85
2022/02/06 12:51:05;;;;;;;;;;;;;;;5.56;97.56;98791.59;5024329;28;20102;-85
2022/02/06 12:53:32;;;;;;;;;;;;;;;5.47;100.00;98796.06;5046821;28;19932;-86
2022/02/06 12:56:02;;;;;;;;;;;;;;;5.44;100.00;98775.34;5035660;28;20038;-84
2022/02/06 12:58:29;;;;;;;;;;;;;;;5.41;100.00;98765.03;5021763;28;19964;-85
2022/02/06 13:00:57;;;;;;;;;;;;;;;5.34;100.00;98766.00;5048547;28;19982;-85
2022/02/06 13:03:34;;;;;;;;;;;;;;;5.30;100.00;98756.59;5028476;28;20025;-84
2022/02/06 13:06:05;;;;;;;;;;;;;;;5.19;100.00;98756.78;5006145;28;21234;-85
2022/02/06 13:08:36;;;;;;;;;;;;;;;5.11;100.00;98756.03;5032435;28;19929;-85
2022/02/06 13:11:06;;;;;;;;;;;;;;;5.08;100.00;98738.78;5009885;28;19932;-86
2022/02/06 13:13:39;;;;;;;;;;;;;;;5.04;100.00;98736.28;5030104;28;20603;-86
2022/02/06 13:16:37;;;;;;;;;;;;;;;5.01;100.00;98732.00;5023663;28;19924;-85
2022/02/06 13:19:20;;;;;;;;;;;;;;;4.98;100.00;98721.72;5023603;28;20077;-86
2022/02/06 13:22:19;;;;;;;;;;;;;;;4.99;100.00;98705.25;5044662;28;21069;-86
2022/02/06 13:25:06;;;;;;;;;;;;;;;5.01;100.00;98700.06;5026526;28;19929;-87
2022/02/06 13:28:15;;;;;;;;;;;;;;;5.04;100.00;98693.06;5025406;28;20067;-86
2022/02/06 13:31:07;;;;;;;;;;;;;;;5.05;100.00;98718.13;5017929;28;19931;-85
2022/02/06 13:33:54;;;;;;;;;;;;;;;5.05;100.00;98722.44;5035516;28;19929;-85
2022/02/06 13:36:31;;;;;;;;;;;;;;;5.01;100.00;98715.63;5031101;28;19929;-85
2022/02/06 13:39:01;;;;;;;;;;;;;;;4.99;100.00;98699.22;5015426;28;21038;-86
2022/02/06 13:41:32;;;;;;;;;;;;;;;4.97;100.00;98707.88;5016735;28;20873;-86
2022/02/06 13:44:00;;;;;;;;;;;;;;;4.94;100.00;98697.56;5015365;28;19940;-86
2022/02/06 13:46:31;;;;;;;;;;;;;;;4.96;100.00;98707.91;5013676;28;19932;-85
2022/02/06 13:48:58;;;;;;;;;;;;;;;4.92;100.00;98704.50;5034386;28;19934;-86
2022/02/06 13:51:46;;;;;;;;;;;;;;;4.88;100.00;98702.00;5027980;28;19933;-85
2022/02/06 13:54:13;;;;;;;;;;;;;;;4.84;100.00;98685.63;5025782;28;20383;-85
2022/02/06 13:56:40;;;;;;;;;;;;;;;4.88;100.00;98692.47;5030589;28;19933;-86
2022/02/06 13:59:18;;;;;;;;;;;;;;;4.84;100.00;98721.94;5015137;28;20052;-83
2022/02/06 14:01:47;;;;;;;;;;;;;;;4.79;100.00;98726.34;5007686;28;20405;-86
2022/02/06 14:04:32;;;;;;;;;;;;;;;4.76;100.00;98716.88;5026188;28;19928;-85
2022/02/06 14:07:21;;;;;;;;;;;;;;;4.67;100.00;98739.47;5013114;28;19936;-86
2022/02/06 14:10:02;;;;;;;;;;;;;;;4.59;100.00;98737.03;5031296;28;19997;-85
2022/02/06 14:12:32;;;;;;;;;;;;;;;4.47;100.00;98756.19;5042796;28;20031;-86
2022/02/06 14:15:00;;;;;;;;;;;;;;;4.34;100.00;98778.84;5023981;28;20075;-86
2022/02/06 14:17:29;;;;;;;;;;;;;;;4.24;100.00;98800.56;5017398;28;19975;-85
2022/02/06 14:19:59;;;;;;;;;;;;;;;4.09;100.00;98856.88;5029116;28;19936;-85
2022/02/06 14:22:35;;;;;;;;;;;;;;;4.02;100.00;98855.22;5025185;28;19986;-86
2022/02/06 14:25:05;;;;;;;;;;;;;;;3.95;100.00;98851.84;5014499;28;20027;-85
2022/02/06 14:27:36;;;;;;;;;;;;;;;3.85;100.00;98852.81;5028539;28;19932;-86
2022/02/06 14:30:08;;;;;;;;;;;;;;;3.68;100.00;98849.50;5049967;28;19928;-86
2022/02/06 14:32:35;;;;;;;;;;;;;;;3.57;100.00;98858.28;5027782;28;20647;-85
2022/02/06 14:35:11;;;;;;;;;;;;;;;3.50;100.00;98861.78;5016591;28;19924;-85
2022/02/06 14:37:53;;;;;;;;;;;;;;;3.45;100.00;98864.38;5046987;28;19933;-86
2022/02/06 14:40:38;;;;;;;;;;;;;;;3.42;100.00;98877.34;5027535;28;19928;-84
2022/02/06 14:43:11;;;;;;;;;;;;;;;3.39;100.00;98869.63;5035586;28;20070;-85
2022/02/06 14:45:48;;;;;;;;;;;;;;;3.40;100.00;98862.72;5047712;28;20015;-86
2022/02/06 14:48:15;;;;;;;;;;;;;;;3.41;100.00;98865.28;5017578;28;19932;-86